HUKB weather

Kabale Airport
Kabale District, Uganda

Public forecast

Using degrees Celsius for public forecast. Weather courtesy of forecast.io.

METAR (pilot weather report)

Report is more than 6 hours old.

Retrieved 2016/02/22 12:00 UTC (3 years ago):

HUKB 221200Z 16002KT 9999 SCT020 27/15

TAF (pilot weather forecast)

Closest forecast is Kigali International Airport, 45.9 nm (84.9 km) SSE. Retrieved 2019/04/25 06:54 UTC (5 hours ago):

TAF HRYR 250500Z 2506/2612 35003KT 9999 FEW025 SCT100 TEMPO 2510/2514 15010G20KT -TSRA FEW023CB BKN025 BECMG 2516/2520 28004KT SCT025 BKN100 BECMG 2602/2605 00000KT FEW026 SCT100 FM 260900 18006KT BKN025